createdAt,value
2023-10-26T00:00:55.799Z,100.00
2023-10-26T00:03:58.767Z,100.00
2023-10-26T00:07:02.107Z,100.00
2023-10-26T00:10:05.049Z,100.00
2023-10-26T00:13:08.882Z,100.00
2023-10-26T00:16:11.517Z,100.00
2023-10-26T00:19:14.041Z,100.00
2023-10-26T00:22:16.539Z,100.00
2023-10-26T00:25:19.046Z,100.00
2023-10-26T00:28:21.673Z,100.00
2023-10-26T00:31:24.434Z,100.00
2023-10-26T00:34:27.678Z,100.00
2023-10-26T00:37:30.147Z,100.00
2023-10-26T00:40:32.585Z,100.00
2023-10-26T00:43:35.473Z,100.00
2023-10-26T00:46:38.027Z,100.00
2023-10-26T00:49:44.010Z,100.00
2023-10-26T00:52:47.585Z,100.00
2023-10-26T00:55:52.438Z,100.00
2023-10-26T00:58:56.335Z,100.00
2023-10-26T01:01:59.687Z,100.00
2023-10-26T01:05:02.185Z,100.00
2023-10-26T01:08:05.312Z,100.00
2023-10-26T01:11:07.827Z,100.00
2023-10-26T01:14:11.945Z,100.00
2023-10-26T01:17:14.841Z,100.00
2023-10-26T01:20:19.316Z,100.00
2023-10-26T01:23:21.866Z,100.00
2023-10-26T01:26:24.871Z,100.00
2023-10-26T01:29:27.337Z,100.00
2023-10-26T01:32:29.813Z,100.00
2023-10-26T01:35:45.860Z,100.00
2023-10-26T01:38:48.423Z,100.00
2023-10-26T01:41:51.654Z,100.00
2023-10-26T01:44:54.129Z,100.00
2023-10-26T01:47:56.901Z,100.00
2023-10-26T01:50:59.360Z,100.00
2023-10-26T01:54:01.843Z,100.00
2023-10-26T01:57:04.549Z,100.00
2023-10-26T02:00:07.550Z,100.00
2023-10-26T02:03:14.702Z,100.00
2023-10-26T02:06:17.440Z,100.00
2023-10-26T02:09:19.938Z,100.00
2023-10-26T02:12:22.465Z,100.00
2023-10-26T02:15:25.293Z,100.00
2023-10-26T02:18:27.820Z,100.00
2023-10-26T02:21:30.331Z,100.00
2023-10-26T02:24:32.787Z,100.00
2023-10-26T02:27:35.893Z,100.00
2023-10-26T02:30:38.350Z,100.00
2023-10-26T02:33:40.806Z,100.00
2023-10-26T02:36:43.281Z,100.00
2023-10-26T02:39:46.222Z,100.00
2023-10-26T02:42:49.582Z,100.00
2023-10-26T02:46:06.202Z,100.00
2023-10-26T02:49:08.752Z,100.00
2023-10-26T02:52:11.120Z,100.00
2023-10-26T02:55:13.614Z,100.00
2023-10-26T02:58:16.009Z,100.00
2023-10-26T03:01:18.434Z,100.00
2023-10-26T03:04:20.975Z,100.00
2023-10-26T03:07:24.116Z,100.00
2023-10-26T03:10:27.214Z,100.00
2023-10-26T03:13:29.625Z,100.00
2023-10-26T03:16:33.668Z,100.00
2023-10-26T03:19:36.184Z,100.00
2023-10-26T03:22:38.639Z,100.00
2023-10-26T03:25:42.142Z,100.00
2023-10-26T03:28:44.712Z,100.00
2023-10-26T03:31:47.142Z,100.00
2023-10-26T03:34:53.646Z,100.00
2023-10-26T03:37:56.120Z,100.00
2023-10-26T03:40:58.567Z,100.00
2023-10-26T03:44:01.404Z,100.00
2023-10-26T03:47:03.883Z,100.00
2023-10-26T03:50:06.766Z,100.00
2023-10-26T03:53:09.218Z,100.00
2023-10-26T03:56:11.645Z,100.00
2023-10-26T03:59:14.013Z,100.00
2023-10-26T04:02:16.813Z,100.00
2023-10-26T04:05:19.327Z,100.00
2023-10-26T04:08:21.778Z,100.00
2023-10-26T04:11:25.737Z,100.00
2023-10-26T04:14:28.170Z,100.00
2023-10-26T04:17:30.643Z,100.00
2023-10-26T04:20:33.140Z,100.00
2023-10-26T04:23:35.568Z,100.00
2023-10-26T04:26:37.969Z,100.00
2023-10-26T04:29:40.373Z,100.00
2023-10-26T04:32:43.715Z,100.00
2023-10-26T04:35:48.013Z,100.00
2023-10-26T04:38:51.555Z,100.00
2023-10-26T04:41:54.021Z,100.00
2023-10-26T04:44:56.583Z,100.00
2023-10-26T04:48:00.109Z,100.00
2023-10-26T04:51:02.928Z,100.00
2023-10-26T04:54:05.533Z,100.00
2023-10-26T04:57:07.996Z,100.00
2023-10-26T05:00:11.445Z,100.00
2023-10-26T05:03:13.951Z,100.00
2023-10-26T05:06:16.675Z,100.00
2023-10-26T05:09:19.271Z,100.00
2023-10-26T05:12:21.809Z,100.00
2023-10-26T05:15:24.430Z,100.00
2023-10-26T05:18:27.037Z,100.00
2023-10-26T05:21:29.695Z,100.00
2023-10-26T05:24:32.394Z,100.00
2023-10-26T05:27:37.006Z,100.00
2023-10-26T05:30:40.078Z,100.00
2023-10-26T05:33:43.363Z,100.00
2023-10-26T05:36:45.780Z,100.00
2023-10-26T05:39:48.341Z,100.00
2023-10-26T05:42:51.022Z,100.00
2023-10-26T05:45:53.819Z,100.00
2023-10-26T05:48:56.260Z,100.00
2023-10-26T05:52:01.945Z,100.00
2023-10-26T05:55:04.892Z,100.00
2023-10-26T05:58:09.980Z,100.00
2023-10-26T06:01:12.420Z,100.00
2023-10-26T06:04:15.028Z,100.00
2023-10-26T06:07:18.593Z,100.00
2023-10-26T06:10:21.001Z,100.00
2023-10-26T06:13:23.392Z,100.00
2023-10-26T06:16:25.863Z,100.00
2023-10-26T06:19:29.094Z,100.00
2023-10-26T06:22:31.548Z,100.00
2023-10-26T06:25:40.215Z,100.00
2023-10-26T06:28:42.623Z,100.00
2023-10-26T06:31:45.722Z,100.00
2023-10-26T06:34:48.142Z,100.00
2023-10-26T06:37:50.604Z,100.00
2023-10-26T06:40:53.025Z,100.00
2023-10-26T06:43:57.112Z,100.00
2023-10-26T06:46:59.586Z,100.00
2023-10-26T06:50:02.035Z,100.00
2023-10-26T06:53:04.518Z,100.00
2023-10-26T06:56:13.714Z,100.00
2023-10-26T06:59:16.171Z,100.00
2023-10-26T07:02:18.649Z,100.00
2023-10-26T07:05:21.110Z,100.00
2023-10-26T07:08:23.865Z,100.00
2023-10-26T07:11:26.838Z,100.00
2023-10-26T07:14:30.691Z,100.00
2023-10-26T07:17:33.175Z,91.33
2023-10-26T07:20:38.243Z,88.17
2023-10-26T07:23:40.677Z,89.14
2023-10-26T07:26:43.130Z,95.07
2023-10-26T07:29:45.770Z,92.06
2023-10-26T07:32:48.456Z,79.12
2023-10-26T07:35:53.103Z,82.94
2023-10-26T07:39:46.674Z,82.14
2023-10-26T07:42:17.929Z,100.00
2023-10-26T07:45:20.433Z,100.00
2023-10-26T07:48:22.942Z,100.00
2023-10-26T07:51:25.386Z,98.97
2023-10-26T07:54:27.969Z,100.00
2023-10-26T07:57:30.758Z,100.00
2023-10-26T08:00:33.276Z,100.00
2023-10-26T08:03:35.815Z,100.00
2023-10-26T08:06:38.222Z,100.00
2023-10-26T08:09:40.703Z,100.00
2023-10-26T08:12:43.165Z,100.00
2023-10-26T08:16:09.980Z,100.00
2023-10-26T08:19:08.132Z,100.00
2023-10-26T08:22:11.835Z,100.00
2023-10-26T08:25:18.891Z,100.00
2023-10-26T08:28:24.340Z,100.00
2023-10-26T08:31:27.158Z,100.00
2023-10-26T08:34:29.785Z,83.41
2023-10-26T08:37:32.232Z,87.13
2023-10-26T08:40:34.726Z,79.76
2023-10-26T08:43:37.679Z,86.44
2023-10-26T08:46:41.842Z,100.00
2023-10-26T08:49:50.285Z,100.00
2023-10-26T08:52:58.777Z,90.02
2023-10-26T08:56:01.761Z,92.58
2023-10-26T08:59:04.727Z,90.68
2023-10-26T09:02:07.244Z,95.99
2023-10-26T09:05:11.727Z,98.05
2023-10-26T09:08:18.602Z,97.56
2023-10-26T09:11:23.622Z,94.37
2023-10-26T09:14:26.434Z,99.57
2023-10-26T09:17:30.973Z,100.00
2023-10-26T09:20:33.927Z,100.00
2023-10-26T09:23:38.530Z,93.55
2023-10-26T09:26:41.070Z,90.72
2023-10-26T09:29:44.568Z,90.88
2023-10-26T09:32:49.435Z,95.03
2023-10-26T09:35:52.487Z,96.37
2023-10-26T09:38:56.491Z,100.00
2023-10-26T09:42:00.376Z,100.00
2023-10-26T09:45:02.852Z,100.00
2023-10-26T09:48:06.432Z,100.00
2023-10-26T09:51:11.676Z,100.00
2023-10-26T09:54:15.208Z,98.08
2023-10-26T09:57:25.323Z,100.00
2023-10-26T10:00:35.688Z,100.00
2023-10-26T10:03:45.359Z,100.00
2023-10-26T10:07:02.044Z,98.42
2023-10-26T10:10:07.017Z,96.20
2023-10-26T10:13:09.537Z,94.05
2023-10-26T10:16:37.153Z,93.60
2023-10-26T10:19:44.594Z,90.88
2023-10-26T10:22:54.821Z,93.36
2023-10-26T10:26:08.225Z,96.71
2023-10-26T10:29:20.527Z,96.19
2023-10-26T10:32:50.745Z,95.39
2023-10-26T10:36:03.667Z,100.00
2023-10-26T10:39:23.700Z,97.19
2023-10-26T10:42:27.193Z,93.44
2023-10-26T10:48:55.360Z,83.89
2023-10-26T10:51:58.647Z,89.16
2023-10-26T10:55:05.288Z,90.23
2023-10-26T10:58:08.374Z,92.53
2023-10-26T11:01:10.923Z,90.64
2023-10-26T11:04:14.754Z,89.79
2023-10-26T11:07:17.607Z,91.10
2023-10-26T11:10:20.455Z,92.69
2023-10-26T11:13:23.532Z,91.32
2023-10-26T11:16:26.502Z,93.99
2023-10-26T11:19:28.924Z,93.72
2023-10-26T11:22:31.635Z,92.99
2023-10-26T11:25:35.419Z,92.44
2023-10-26T11:28:37.939Z,96.22
2023-10-26T11:31:42.723Z,93.21
2023-10-26T11:35:11.975Z,93.17
2023-10-26T11:38:14.394Z,92.62
2023-10-26T11:41:26.850Z,95.13
2023-10-26T11:44:31.088Z,95.01
2023-10-26T11:47:51.687Z,94.70
2023-10-26T11:50:54.494Z,88.70
2023-10-26T11:53:58.253Z,89.83
2023-10-26T11:57:00.803Z,88.68
2023-10-26T12:00:07.213Z,92.53
2023-10-26T12:03:15.151Z,97.21
2023-10-26T12:06:17.578Z,93.87
2023-10-26T12:09:20.233Z,92.09
2023-10-26T12:12:22.672Z,92.72
2023-10-26T12:15:25.240Z,91.33
2023-10-26T12:18:28.275Z,93.32
2023-10-26T12:21:30.857Z,95.32
2023-10-26T12:24:34.246Z,94.41
2023-10-26T12:28:20.645Z,90.84
2023-10-26T12:30:59.128Z,90.52
2023-10-26T12:34:01.795Z,95.78
2023-10-26T12:37:05.422Z,93.73
2023-10-26T12:40:09.459Z,92.45
2023-10-26T12:43:11.949Z,90.69
2023-10-26T12:46:14.445Z,88.94
2023-10-26T12:49:16.922Z,92.64
2023-10-26T12:52:19.359Z,94.46
2023-10-26T12:55:24.784Z,95.28
2023-10-26T12:58:27.282Z,95.73
2023-10-26T13:01:29.759Z,96.95
2023-10-26T13:04:35.129Z,95.74
2023-10-26T13:07:37.610Z,90.15
2023-10-26T13:10:40.198Z,90.90
2023-10-26T13:13:42.924Z,93.01
2023-10-26T13:16:57.159Z,93.83
2023-10-26T13:20:01.077Z,93.95
2023-10-26T13:23:03.539Z,89.15
2023-10-26T13:26:05.949Z,88.70
2023-10-26T13:29:08.420Z,88.42
2023-10-26T13:32:13.015Z,91.72
2023-10-26T13:35:15.509Z,93.93
2023-10-26T13:38:17.890Z,94.00
2023-10-26T13:41:24.488Z,94.71
2023-10-26T13:44:26.974Z,94.76
2023-10-26T13:47:29.401Z,95.81
2023-10-26T13:50:31.826Z,97.13
2023-10-26T13:53:34.261Z,97.24
2023-10-26T13:56:36.684Z,99.94
2023-10-26T13:59:40.460Z,100.00
2023-10-26T14:02:43.121Z,100.00
2023-10-26T14:05:52.739Z,100.00
2023-10-26T14:08:59.272Z,100.00
2023-10-26T14:12:04.470Z,100.00
2023-10-26T14:15:07.394Z,100.00
2023-10-26T14:18:09.974Z,100.00
2023-10-26T14:21:12.432Z,100.00
2023-10-26T14:24:14.865Z,100.00
2023-10-26T14:27:17.289Z,100.00
2023-10-26T14:30:19.965Z,100.00
2023-10-26T14:33:22.799Z,100.00
2023-10-26T14:36:25.208Z,100.00
2023-10-26T14:39:28.394Z,100.00
2023-10-26T14:42:30.934Z,100.00
2023-10-26T14:45:36.179Z,100.00
2023-10-26T14:48:39.217Z,100.00
2023-10-26T14:51:45.659Z,100.00
2023-10-26T14:54:48.196Z,100.00
2023-10-26T14:57:51.028Z,100.00
2023-10-26T15:00:53.802Z,100.00
2023-10-26T15:03:56.935Z,100.00
2023-10-26T15:07:01.282Z,100.00
2023-10-26T15:10:20.769Z,100.00
2023-10-26T15:13:26.506Z,100.00
2023-10-26T15:16:29.148Z,100.00
2023-10-26T15:19:34.071Z,100.00
2023-10-26T15:22:36.460Z,100.00
2023-10-26T15:25:38.953Z,100.00
2023-10-26T15:28:41.408Z,100.00
2023-10-26T15:31:48.251Z,100.00
2023-10-26T15:34:50.720Z,100.00
2023-10-26T15:37:53.311Z,100.00
2023-10-26T15:41:05.410Z,100.00
2023-10-26T15:44:07.808Z,100.00
2023-10-26T15:47:10.341Z,100.00
2023-10-26T15:50:12.908Z,100.00
2023-10-26T15:53:15.424Z,100.00
2023-10-26T15:56:17.849Z,100.00
2023-10-26T15:59:20.316Z,100.00
2023-10-26T16:02:22.925Z,100.00
2023-10-26T16:05:25.425Z,100.00
2023-10-26T16:08:27.804Z,100.00
2023-10-26T16:11:30.236Z,100.00
2023-10-26T16:14:32.624Z,100.00
2023-10-26T16:17:37.798Z,100.00
2023-10-26T16:20:40.297Z,100.00
2023-10-26T16:23:43.423Z,100.00
2023-10-26T16:26:45.900Z,100.00
2023-10-26T16:29:48.969Z,100.00
2023-10-26T16:32:51.406Z,100.00
2023-10-26T16:35:59.001Z,100.00
2023-10-26T16:39:01.400Z,100.00
2023-10-26T16:42:04.114Z,100.00
2023-10-26T16:45:06.830Z,100.00
2023-10-26T16:48:09.241Z,100.00
2023-10-26T16:51:11.712Z,100.00
2023-10-26T16:54:14.203Z,100.00
2023-10-26T16:57:16.783Z,100.00
2023-10-26T17:00:19.672Z,100.00
2023-10-26T17:03:22.334Z,100.00
2023-10-26T17:06:25.057Z,100.00
2023-10-26T17:09:28.691Z,100.00
2023-10-26T17:12:31.385Z,100.00
2023-10-26T17:15:33.801Z,100.00
2023-10-26T17:18:36.443Z,100.00
2023-10-26T17:21:38.910Z,100.00
2023-10-26T17:24:42.034Z,100.00
2023-10-26T17:27:44.504Z,100.00
2023-10-26T17:30:47.243Z,100.00
2023-10-26T17:33:50.204Z,100.00
2023-10-26T17:36:55.821Z,100.00
2023-10-26T17:39:58.341Z,100.00
2023-10-26T17:43:01.490Z,100.00
2023-10-26T17:46:04.459Z,100.00
2023-10-26T17:49:07.807Z,100.00
2023-10-26T17:52:10.292Z,100.00
2023-10-26T17:55:14.637Z,100.00
2023-10-26T17:58:17.275Z,100.00
2023-10-26T18:01:20.972Z,100.00
2023-10-26T18:04:23.783Z,100.00
2023-10-26T18:07:26.509Z,100.00
2023-10-26T18:10:30.229Z,100.00
2023-10-26T18:13:34.353Z,100.00
2023-10-26T18:16:36.992Z,100.00
2023-10-26T18:19:39.515Z,100.00
2023-10-26T18:22:42.008Z,100.00
2023-10-26T18:25:44.637Z,100.00
2023-10-26T18:28:47.414Z,100.00
2023-10-26T18:31:49.959Z,100.00
2023-10-26T18:34:52.722Z,100.00
2023-10-26T18:37:56.429Z,100.00
2023-10-26T18:41:00.112Z,100.00
2023-10-26T18:44:02.596Z,100.00
2023-10-26T18:47:05.540Z,100.00
2023-10-26T18:50:08.246Z,100.00
2023-10-26T18:53:10.709Z,100.00
2023-10-26T18:56:15.313Z,100.00
2023-10-26T18:59:17.723Z,100.00
2023-10-26T19:02:20.375Z,100.00
2023-10-26T19:05:22.768Z,100.00
2023-10-26T19:08:25.179Z,100.00
2023-10-26T19:11:29.057Z,100.00
2023-10-26T19:14:32.998Z,100.00
2023-10-26T19:17:35.428Z,100.00
2023-10-26T19:20:43.949Z,100.00
2023-10-26T19:23:46.723Z,100.00
2023-10-26T19:26:49.239Z,100.00
2023-10-26T19:29:51.696Z,100.00
2023-10-26T19:32:54.314Z,100.00
2023-10-26T19:35:57.096Z,100.00
2023-10-26T19:38:59.861Z,100.00
2023-10-26T19:42:02.526Z,100.00
2023-10-26T19:45:06.782Z,100.00
2023-10-26T19:48:09.526Z,100.00
2023-10-26T19:51:12.824Z,100.00
2023-10-26T19:54:15.282Z,100.00
2023-10-26T19:57:19.009Z,100.00
2023-10-26T20:00:21.663Z,100.00
2023-10-26T20:03:24.312Z,100.00
2023-10-26T20:06:27.305Z,100.00
2023-10-26T20:09:30.816Z,100.00
2023-10-26T20:12:33.454Z,100.00
2023-10-26T20:15:36.653Z,100.00
2023-10-26T20:18:40.238Z,100.00
2023-10-26T20:21:43.006Z,100.00
2023-10-26T20:24:49.030Z,100.00
2023-10-26T20:27:51.632Z,100.00
2023-10-26T20:30:55.252Z,100.00
2023-10-26T20:33:59.205Z,100.00
2023-10-26T20:37:02.886Z,100.00
2023-10-26T20:40:06.179Z,100.00
2023-10-26T20:43:09.415Z,100.00
2023-10-26T20:46:12.942Z,100.00
2023-10-26T20:49:15.709Z,100.00
2023-10-26T20:52:18.200Z,100.00
2023-10-26T20:55:20.716Z,100.00
2023-10-26T20:58:23.191Z,100.00
2023-10-26T21:01:25.833Z,100.00
2023-10-26T21:04:28.263Z,100.00
2023-10-26T21:07:30.662Z,100.00
2023-10-26T21:10:35.999Z,100.00
2023-10-26T21:13:38.575Z,100.00
2023-10-26T21:16:43.320Z,100.00
2023-10-26T21:19:46.052Z,100.00
2023-10-26T21:22:48.582Z,100.00
2023-10-26T21:25:50.996Z,100.00
2023-10-26T21:28:55.427Z,100.00
2023-10-26T21:31:58.024Z,100.00
2023-10-26T21:35:00.594Z,100.00
2023-10-26T21:38:03.988Z,100.00
2023-10-26T21:41:06.708Z,100.00
2023-10-26T21:44:09.176Z,100.00
2023-10-26T21:47:11.646Z,100.00
2023-10-26T21:50:14.202Z,100.00
2023-10-26T21:53:18.020Z,100.00
2023-10-26T21:56:20.670Z,100.00
2023-10-26T21:59:23.109Z,100.00
2023-10-26T22:02:26.178Z,100.00
2023-10-26T22:05:29.239Z,100.00
2023-10-26T22:08:31.656Z,100.00
2023-10-26T22:11:34.131Z,100.00
2023-10-26T22:14:36.544Z,100.00
2023-10-26T22:17:39.352Z,100.00
2023-10-26T22:20:41.806Z,100.00
2023-10-26T22:23:44.204Z,100.00
2023-10-26T22:26:46.673Z,100.00
2023-10-26T22:29:49.143Z,100.00
2023-10-26T22:32:51.577Z,100.00
2023-10-26T22:35:54.554Z,100.00
2023-10-26T22:38:57.059Z,100.00
2023-10-26T22:41:59.480Z,100.00
2023-10-26T22:45:02.621Z,100.00
2023-10-26T22:48:05.440Z,100.00
2023-10-26T22:51:07.838Z,100.00
2023-10-26T22:54:10.273Z,100.00
2023-10-26T22:57:12.707Z,100.00
2023-10-26T23:00:15.416Z,100.00
2023-10-26T23:03:17.909Z,100.00
2023-10-26T23:06:20.668Z,100.00
2023-10-26T23:09:23.127Z,100.00
2023-10-26T23:12:25.702Z,100.00
2023-10-26T23:15:28.170Z,100.00
2023-10-26T23:18:30.622Z,100.00
2023-10-26T23:21:33.565Z,100.00
2023-10-26T23:24:39.805Z,100.00
2023-10-26T23:27:42.219Z,100.00
2023-10-26T23:30:44.675Z,100.00
2023-10-26T23:33:47.668Z,100.00
2023-10-26T23:36:50.497Z,100.00
2023-10-26T23:39:52.945Z,100.00
2023-10-26T23:42:55.393Z,100.00
2023-10-26T23:45:59.148Z,100.00
2023-10-26T23:49:01.669Z,100.00
2023-10-26T23:52:04.318Z,100.00
2023-10-26T23:55:07.311Z,100.00
2023-10-26T23:58:09.957Z,100.00
